createdAt,value
2023-01-20T00:04:22.552Z,100198.19
2023-01-20T00:11:54.289Z,100204.25
2023-01-20T00:19:27.477Z,100216.31
2023-01-20T00:26:59.267Z,100217.94
2023-01-20T00:34:31.030Z,100218.53
2023-01-20T00:42:02.745Z,100236.09
2023-01-20T00:49:38.212Z,100237.19
2023-01-20T00:57:10.087Z,100246.50
2023-01-20T01:04:41.809Z,100247.31
2023-01-20T01:12:13.601Z,100272.25
2023-01-20T01:19:45.342Z,100269.81
2023-01-20T01:27:17.207Z,100272.25
2023-01-20T01:34:49.073Z,100272.84
2023-01-20T01:42:24.953Z,100278.31
2023-01-20T01:49:56.897Z,100283.00
2023-01-20T01:57:30.125Z,100292.63
2023-01-20T02:05:02.476Z,100311.25
2023-01-20T02:12:34.276Z,100314.81
2023-01-20T02:20:57.091Z,100324.94
2023-01-20T02:28:37.124Z,100334.28
2023-01-20T02:36:21.494Z,100351.75
2023-01-20T02:44:00.839Z,100368.19
2023-01-20T02:51:38.850Z,100377.50
2023-01-20T02:59:12.174Z,100384.06
2023-01-20T03:06:47.371Z,100377.81
2023-01-20T03:14:19.189Z,100377.56
2023-01-20T03:21:50.980Z,100394.81
2023-01-20T03:29:22.747Z,100406.56
2023-01-20T03:36:54.482Z,100411.25
2023-01-20T03:45:06.830Z,100417.50
2023-01-20T03:53:25.920Z,100421.34
2023-01-20T04:00:57.801Z,100429.84
2023-01-20T04:08:33.773Z,100438.06
2023-01-20T04:16:11.958Z,100441.09
2023-01-20T04:24:10.034Z,100454.78
2023-01-20T04:31:41.782Z,100454.78
2023-01-20T04:39:13.619Z,100464.09
2023-01-20T04:46:47.238Z,100477.78
2023-01-20T04:54:19.050Z,100489.88
2023-01-20T05:01:50.924Z,100494.50
2023-01-20T05:09:22.812Z,100490.13
2023-01-20T05:16:54.725Z,100507.69
2023-01-20T05:24:26.578Z,100524.91
2023-01-20T05:31:58.332Z,100534.50
2023-01-20T05:39:30.089Z,100542.97
2023-01-20T05:47:02.424Z,100559.59
2023-01-20T05:54:36.404Z,100562.88
2023-01-20T06:02:08.826Z,100564.22
2023-01-20T06:09:41.012Z,100580.06
2023-01-20T06:17:12.827Z,100591.56
2023-01-20T06:24:44.603Z,100604.13
2023-01-20T06:32:16.374Z,100616.72
2023-01-20T06:39:48.161Z,100619.72
2023-01-20T06:47:19.912Z,100651.44
2023-01-20T06:54:51.723Z,100661.00
2023-01-20T07:02:23.521Z,100675.22
2023-01-20T07:09:55.501Z,100681.75
2023-01-20T07:17:27.378Z,100695.94
2023-01-20T07:24:59.126Z,100721.94
2023-01-20T07:32:31.102Z,100725.22
2023-01-20T07:40:02.854Z,100734.25
2023-01-20T07:47:34.616Z,100732.59
2023-01-20T07:55:06.840Z,100750.16
2023-01-20T08:02:38.991Z,100759.47
2023-01-20T08:10:10.770Z,100755.38
2023-01-20T08:17:42.506Z,100767.97
2023-01-20T08:25:15.201Z,100786.88
2023-01-20T08:32:47.133Z,100790.41
2023-01-20T08:40:19.016Z,100804.94
2023-01-20T08:47:51.035Z,100803.53
2023-01-20T08:55:23.423Z,100806.25
2023-01-20T09:02:55.149Z,100830.66
2023-01-20T09:10:26.984Z,100831.16
2023-01-20T09:17:58.919Z,100849.75
2023-01-20T09:25:30.671Z,100857.97
2023-01-20T09:33:02.487Z,100869.75
2023-01-20T09:41:28.316Z,100883.97
2023-01-20T09:49:30.454Z,100890.28
2023-01-20T09:57:02.240Z,100893.03
2023-01-20T10:04:38.649Z,100891.09
2023-01-20T10:12:46.053Z,100911.34
2023-01-20T10:20:30.138Z,100914.38
2023-01-20T10:28:10.886Z,100916.56
2023-01-20T10:35:46.545Z,100914.94
2023-01-20T10:43:18.280Z,100926.44
2023-01-20T10:50:58.317Z,100923.69
2023-01-20T10:58:37.284Z,100934.16
2023-01-20T11:06:16.328Z,100932.53
2023-01-20T11:13:51.521Z,100932.53
2023-01-20T11:21:24.879Z,100933.88
2023-01-20T11:29:10.764Z,100939.91
2023-01-20T11:36:44.679Z,100926.50
2023-01-20T11:44:20.489Z,100941.25
2023-01-20T11:51:56.253Z,100943.72
2023-01-20T11:59:32.578Z,100948.06
2023-01-20T12:07:14.385Z,100957.63
2023-01-20T12:14:49.286Z,100964.75
2023-01-20T12:22:46.463Z,100971.88
2023-01-20T12:30:39.368Z,100986.09
2023-01-20T12:38:11.982Z,101005.81
2023-01-20T12:46:18.742Z,101015.13
2023-01-20T12:54:42.997Z,101024.72
2023-01-20T13:02:38.418Z,101035.38
2023-01-20T13:10:50.923Z,101051.53
2023-01-20T13:19:07.339Z,101053.47
2023-01-20T13:26:39.088Z,101054.28
2023-01-20T13:34:22.903Z,101051.81
2023-01-20T13:41:54.730Z,101054.56
2023-01-20T13:49:29.086Z,101064.13
2023-01-20T13:57:20.411Z,101082.22
2023-01-20T14:04:52.479Z,101073.44
2023-01-20T14:12:24.468Z,101081.66
2023-01-20T14:19:56.260Z,101085.75
2023-01-20T14:27:33.539Z,101099.97
2023-01-20T14:35:27.403Z,101113.16
2023-01-20T14:43:00.963Z,101123.03
2023-01-20T14:50:33.607Z,101136.44
2023-01-20T14:58:24.211Z,101150.44
2023-01-20T15:06:18.563Z,101160.03
2023-01-20T15:13:53.346Z,101168.53
2023-01-20T15:21:27.148Z,101177.84
2023-01-20T15:28:58.979Z,101191.53
2023-01-20T15:36:33.148Z,101201.94
2023-01-20T15:44:05.128Z,101201.97
2023-01-20T15:51:38.603Z,101225.50
2023-01-20T15:59:18.198Z,101249.09
2023-01-20T16:06:49.964Z,101260.59
2023-01-20T16:14:21.788Z,101277.03
2023-01-20T16:21:53.577Z,101281.41
2023-01-20T16:29:25.340Z,101288.00
2023-01-20T16:36:57.086Z,101298.13
2023-01-20T16:44:29.651Z,101301.69
2023-01-20T16:52:01.435Z,101319.75
2023-01-20T16:59:33.448Z,101330.19
2023-01-20T17:07:06.579Z,101333.72
2023-01-20T17:14:38.388Z,101353.19
2023-01-20T17:22:10.185Z,101355.94
2023-01-20T17:29:43.109Z,101365.25
2023-01-20T17:37:15.145Z,101381.97
2023-01-20T17:44:46.837Z,101384.13
2023-01-20T17:52:20.105Z,101401.13
2023-01-20T17:59:51.851Z,101407.69
2023-01-20T18:07:23.846Z,101413.47
2023-01-20T18:14:55.677Z,101430.75
2023-01-20T18:22:27.639Z,101439.50
2023-01-20T18:29:59.595Z,101439.75
2023-01-20T18:37:31.410Z,101450.19
2023-01-20T18:45:03.560Z,101462.78
2023-01-20T18:52:35.381Z,101474.31
2023-01-20T19:00:08.386Z,101476.19
2023-01-20T19:07:40.205Z,101488.53
2023-01-20T19:15:12.112Z,101479.50
2023-01-20T19:22:43.899Z,101492.66
2023-01-20T19:30:16.610Z,101504.69
2023-01-20T19:37:48.697Z,101508.28
2023-01-20T19:45:20.595Z,101526.38
2023-01-20T19:52:52.372Z,101529.94
2023-01-20T20:00:24.115Z,101536.50
2023-01-20T20:07:55.889Z,101551.03
2023-01-20T20:15:27.710Z,101558.16
2023-01-20T20:22:59.573Z,101564.19
2023-01-20T20:30:31.367Z,101563.63
2023-01-20T20:38:04.060Z,101576.50
2023-01-20T20:45:36.216Z,101585.00
2023-01-20T20:53:08.217Z,101591.31
2023-01-20T21:00:40.234Z,101594.88
2023-01-20T21:08:12.109Z,101608.31
2023-01-20T21:15:44.072Z,101610.22
2023-01-20T21:23:16.019Z,101617.91
2023-01-20T21:30:48.007Z,101635.97
2023-01-20T21:38:19.966Z,101641.47
2023-01-20T21:45:53.371Z,101649.13
2023-01-20T21:53:25.098Z,101661.75
2023-01-20T22:00:56.944Z,101666.13
2023-01-20T22:08:28.799Z,101680.94
2023-01-20T22:16:04.179Z,101677.09
2023-01-20T22:23:35.953Z,101682.03
2023-01-20T22:31:13.117Z,101692.69
2023-01-20T22:38:47.243Z,101705.00
2023-01-20T22:46:20.363Z,101700.63
2023-01-20T22:54:00.147Z,101717.59
2023-01-20T23:01:33.880Z,101726.66
2023-01-20T23:09:08.631Z,101732.94
2023-01-20T23:16:41.059Z,101725.81
2023-01-20T23:24:12.851Z,101746.91
2023-01-20T23:31:44.688Z,101731.28
2023-01-20T23:39:16.433Z,101742.78
2023-01-20T23:46:48.177Z,101741.13
2023-01-20T23:54:20.022Z,101745.78
